createdAt,value
2019-01-29T00:00:53.404Z,990.94
2019-01-29T00:01:53.401Z,990.97
2019-01-29T00:02:53.381Z,990.99
2019-01-29T00:03:53.471Z,990.97
2019-01-29T00:04:53.394Z,990.99
2019-01-29T00:05:53.345Z,990.98
2019-01-29T00:06:53.351Z,991.02
2019-01-29T00:07:53.325Z,991.02
2019-01-29T00:08:53.320Z,991.00
2019-01-29T00:09:53.364Z,991.03
2019-01-29T00:10:53.291Z,991.07
2019-01-29T00:11:53.276Z,991.09
2019-01-29T00:12:53.267Z,991.10
2019-01-29T00:13:53.263Z,991.10
2019-01-29T00:14:53.349Z,991.09
2019-01-29T00:15:53.252Z,991.18
2019-01-29T00:16:53.215Z,991.15
2019-01-29T00:17:53.212Z,991.18
2019-01-29T00:18:53.196Z,991.19
2019-01-29T00:19:53.202Z,991.19
2019-01-29T00:20:53.255Z,991.28
2019-01-29T00:21:53.177Z,991.24
2019-01-29T00:22:53.153Z,991.29
2019-01-29T00:23:53.144Z,991.29
2019-01-29T00:24:53.156Z,991.33
2019-01-29T00:25:53.270Z,991.35
2019-01-29T00:26:53.167Z,991.36
2019-01-29T00:27:53.116Z,991.35
2019-01-29T00:28:53.161Z,991.39
2019-01-29T00:29:53.083Z,991.36
2019-01-29T00:30:53.072Z,991.44
2019-01-29T00:31:53.070Z,991.44
2019-01-29T00:32:53.056Z,991.53
2019-01-29T00:33:53.117Z,991.47
2019-01-29T00:34:53.027Z,991.48
2019-01-29T00:35:53.016Z,991.49
2019-01-29T00:36:53.084Z,991.52
2019-01-29T00:37:53.260Z,991.51
2019-01-29T00:38:53.125Z,991.50
2019-01-29T00:39:53.279Z,991.57
2019-01-29T00:40:52.956Z,991.58
2019-01-29T00:41:52.948Z,991.57
2019-01-29T00:42:52.942Z,991.66
2019-01-29T00:43:52.928Z,991.64
2019-01-29T00:44:52.924Z,991.66
2019-01-29T00:45:52.972Z,991.66
2019-01-29T00:46:52.893Z,991.69
2019-01-29T00:47:52.880Z,991.68
2019-01-29T00:48:52.947Z,991.70
2019-01-29T00:49:52.860Z,991.71
2019-01-29T00:50:52.881Z,991.68
2019-01-29T00:51:52.906Z,991.72
2019-01-29T00:52:52.915Z,991.74
2019-01-29T00:53:52.814Z,991.77
2019-01-29T00:54:52.860Z,991.75
2019-01-29T00:55:52.805Z,991.83
2019-01-29T00:56:52.803Z,991.86
2019-01-29T00:57:52.780Z,991.83
2019-01-29T00:58:52.818Z,991.87
2019-01-29T00:59:52.759Z,991.91
2019-01-29T01:00:52.778Z,991.92
2019-01-29T01:01:52.738Z,991.93
2019-01-29T01:02:52.745Z,991.96
2019-01-29T01:03:52.712Z,992.01
2019-01-29T01:04:52.773Z,992.04
2019-01-29T01:05:52.685Z,992.00
2019-01-29T01:06:52.691Z,991.99
2019-01-29T01:07:52.681Z,992.06
2019-01-29T01:08:52.669Z,992.04
2019-01-29T01:09:57.274Z,992.05
2019-01-29T01:10:52.636Z,992.06
2019-01-29T01:11:52.626Z,992.09
2019-01-29T01:12:52.656Z,992.02
2019-01-29T01:13:52.617Z,992.11
2019-01-29T01:14:52.610Z,992.12
2019-01-29T01:15:52.648Z,992.18
2019-01-29T01:16:52.598Z,992.17
2019-01-29T01:17:52.565Z,992.12
2019-01-29T01:18:52.557Z,992.21
2019-01-29T01:19:52.539Z,992.16
2019-01-29T01:20:52.591Z,992.22
2019-01-29T01:21:52.521Z,992.24
2019-01-29T01:22:52.502Z,992.22
2019-01-29T01:23:52.531Z,992.22
2019-01-29T01:24:52.532Z,992.19
2019-01-29T01:25:52.480Z,992.24
2019-01-29T01:26:52.539Z,992.26
2019-01-29T01:27:52.453Z,992.26
2019-01-29T01:28:52.460Z,992.28
2019-01-29T01:29:52.456Z,992.32
2019-01-29T01:30:52.431Z,992.41
2019-01-29T01:32:10.754Z,992.42
2019-01-29T01:32:52.417Z,992.40
2019-01-29T01:33:52.383Z,992.42
2019-01-29T01:34:52.411Z,992.44
2019-01-29T01:35:52.388Z,992.49
2019-01-29T01:36:52.379Z,992.46
2019-01-29T01:37:52.390Z,992.49
2019-01-29T01:38:52.331Z,992.43
2019-01-29T01:39:52.327Z,992.52
2019-01-29T01:40:52.305Z,992.51
2019-01-29T01:41:52.297Z,992.53
2019-01-29T01:42:52.361Z,992.52
2019-01-29T01:43:53.183Z,992.53
2019-01-29T01:44:52.289Z,992.57
2019-01-29T01:45:52.276Z,992.58
2019-01-29T01:46:52.245Z,992.54
2019-01-29T01:47:52.234Z,992.61
2019-01-29T01:48:52.286Z,992.60
2019-01-29T01:49:52.239Z,992.64
2019-01-29T01:50:52.209Z,992.65
2019-01-29T01:51:52.187Z,992.66
2019-01-29T01:52:59.103Z,992.61
2019-01-29T01:53:53.277Z,992.67
2019-01-29T01:54:52.174Z,992.70
2019-01-29T01:55:52.160Z,992.65
2019-01-29T01:56:52.397Z,992.74
2019-01-29T01:57:52.131Z,992.73
2019-01-29T01:58:52.123Z,992.81
2019-01-29T01:59:52.168Z,992.85
2019-01-29T02:00:52.125Z,992.80
2019-01-29T02:01:52.115Z,992.84
2019-01-29T02:02:52.077Z,992.92
2019-01-29T02:03:52.072Z,992.86
2019-01-29T02:04:52.062Z,992.92
2019-01-29T02:05:52.109Z,992.97
2019-01-29T02:06:52.049Z,992.94
2019-01-29T02:07:52.086Z,992.99
2019-01-29T02:08:52.010Z,993.00
2019-01-29T02:09:51.999Z,993.04
2019-01-29T02:10:51.989Z,992.99
2019-01-29T02:11:51.987Z,993.02
2019-01-29T02:12:51.991Z,993.12
2019-01-29T02:13:52.038Z,993.10
2019-01-29T02:14:52.306Z,993.10
2019-01-29T02:15:52.008Z,993.06
2019-01-29T02:16:51.931Z,993.12
2019-01-29T02:17:51.931Z,993.09
2019-01-29T02:18:51.932Z,993.16
2019-01-29T02:19:51.887Z,993.16
2019-01-29T02:20:51.881Z,993.10
2019-01-29T02:21:52.097Z,993.18
2019-01-29T02:22:51.880Z,993.19
2019-01-29T02:23:51.856Z,993.19
2019-01-29T02:24:51.834Z,993.24
2019-01-29T02:25:51.826Z,993.23
2019-01-29T02:26:51.806Z,993.27
2019-01-29T02:27:51.877Z,993.33
2019-01-29T02:28:51.790Z,993.32
2019-01-29T02:29:51.799Z,993.31
2019-01-29T02:30:51.780Z,993.31
2019-01-29T02:31:51.752Z,993.42
2019-01-29T02:32:51.752Z,993.36
2019-01-29T02:33:51.796Z,993.40
2019-01-29T02:34:51.732Z,993.40
2019-01-29T02:35:51.735Z,993.51
2019-01-29T02:36:51.712Z,993.50
2019-01-29T02:37:51.700Z,993.51
2019-01-29T02:38:51.789Z,993.54
2019-01-29T02:39:51.675Z,993.53
2019-01-29T02:40:51.667Z,993.57
2019-01-29T02:41:51.658Z,993.58
2019-01-29T02:42:51.649Z,993.60
2019-01-29T02:43:51.623Z,993.64
2019-01-29T02:44:51.700Z,993.65
2019-01-29T02:45:51.607Z,993.68
2019-01-29T02:46:51.604Z,993.67
2019-01-29T02:47:51.599Z,993.73
2019-01-29T02:48:51.597Z,993.73
2019-01-29T02:49:51.594Z,993.73
2019-01-29T02:50:51.631Z,993.76
2019-01-29T02:51:51.565Z,993.74
2019-01-29T02:52:51.540Z,993.77
2019-01-29T02:53:51.534Z,993.86
2019-01-29T02:54:51.537Z,993.79
2019-01-29T02:55:51.498Z,993.83
2019-01-29T02:56:51.627Z,993.87
2019-01-29T02:57:51.483Z,993.84
2019-01-29T02:58:51.524Z,993.88
2019-01-29T02:59:51.485Z,993.86
2019-01-29T03:00:51.454Z,993.92
2019-01-29T03:01:51.430Z,993.93
2019-01-29T03:02:51.419Z,993.90
2019-01-29T03:03:51.569Z,993.94
2019-01-29T03:04:53.431Z,993.97
2019-01-29T03:05:51.404Z,993.98
2019-01-29T03:06:51.383Z,994.02
2019-01-29T03:07:51.367Z,994.04
2019-01-29T03:08:51.777Z,994.02
2019-01-29T03:09:51.360Z,994.04
2019-01-29T03:10:51.356Z,994.07
2019-01-29T03:11:51.377Z,994.08
2019-01-29T03:12:52.226Z,994.16
2019-01-29T03:13:51.302Z,994.16
2019-01-29T03:14:51.348Z,994.18
2019-01-29T03:15:51.340Z,994.20
2019-01-29T03:16:51.270Z,994.27
2019-01-29T03:17:51.265Z,994.29
2019-01-29T03:18:51.241Z,994.26
2019-01-29T03:19:51.246Z,994.31
2019-01-29T03:20:51.276Z,994.28
2019-01-29T03:21:51.215Z,994.34
2019-01-29T03:22:51.199Z,994.31
2019-01-29T03:23:51.202Z,994.31
2019-01-29T03:24:51.205Z,994.40
2019-01-29T03:25:51.186Z,994.41
2019-01-29T03:26:51.266Z,994.42
2019-01-29T03:27:51.156Z,994.47
2019-01-29T03:28:51.137Z,994.47
2019-01-29T03:29:51.128Z,994.54
2019-01-29T03:30:51.142Z,994.53
2019-01-29T03:31:51.103Z,994.54
2019-01-29T03:32:51.143Z,994.57
2019-01-29T03:33:51.096Z,994.57
2019-01-29T03:34:51.097Z,994.53
2019-01-29T03:35:51.062Z,994.59
2019-01-29T03:36:51.117Z,994.71
2019-01-29T03:37:51.043Z,994.67
2019-01-29T03:38:51.024Z,994.66
2019-01-29T03:39:51.025Z,994.65
2019-01-29T03:40:51.011Z,994.75
2019-01-29T03:41:51.020Z,994.78
2019-01-29T03:42:51.066Z,994.80
2019-01-29T03:43:50.973Z,994.81
2019-01-29T03:44:50.967Z,994.83
2019-01-29T03:45:50.963Z,994.86
2019-01-29T03:46:50.953Z,994.85
2019-01-29T03:47:50.927Z,994.79
2019-01-29T03:48:50.995Z,994.83
2019-01-29T03:49:50.911Z,994.80
2019-01-29T03:50:50.906Z,994.89
2019-01-29T03:51:50.912Z,994.89
2019-01-29T03:52:50.894Z,994.88
2019-01-29T03:53:50.928Z,994.85
2019-01-29T03:54:50.851Z,994.90
2019-01-29T03:55:50.847Z,994.92
2019-01-29T03:56:50.876Z,994.91
2019-01-29T03:57:50.854Z,994.91
2019-01-29T03:58:50.826Z,994.93
2019-01-29T03:59:50.862Z,994.95
2019-01-29T04:00:50.797Z,994.96
2019-01-29T04:01:50.839Z,994.99
2019-01-29T04:02:50.856Z,994.98
2019-01-29T04:03:50.767Z,995.03
2019-01-29T04:04:50.749Z,994.98
2019-01-29T04:05:50.740Z,995.05
2019-01-29T04:06:50.733Z,995.01
2019-01-29T04:07:50.794Z,995.06
2019-01-29T04:08:50.715Z,995.09
2019-01-29T04:09:50.705Z,995.11
2019-01-29T04:10:50.696Z,995.14
2019-01-29T04:11:50.702Z,995.17
2019-01-29T04:12:50.657Z,995.11
2019-01-29T04:13:50.754Z,995.14
2019-01-29T04:14:50.669Z,995.19
2019-01-29T04:15:50.632Z,995.25
2019-01-29T04:16:50.611Z,995.24
2019-01-29T04:17:50.602Z,995.28
2019-01-29T04:18:50.611Z,995.28
2019-01-29T04:19:50.684Z,995.34
2019-01-29T04:20:50.600Z,995.35
2019-01-29T04:21:50.644Z,995.38
2019-01-29T04:22:50.571Z,995.42
2019-01-29T04:23:50.576Z,995.45
2019-01-29T04:24:50.602Z,995.43
2019-01-29T04:25:50.529Z,995.42
2019-01-29T04:26:50.587Z,995.47
2019-01-29T04:27:50.493Z,995.50
2019-01-29T04:28:50.481Z,995.54
2019-01-29T04:29:50.502Z,995.52
2019-01-29T04:30:50.476Z,995.58
2019-01-29T04:31:50.506Z,995.58
2019-01-29T04:32:50.570Z,995.62
2019-01-29T04:33:50.426Z,995.62
2019-01-29T04:34:50.426Z,995.55
2019-01-29T04:35:50.410Z,995.59
2019-01-29T04:36:50.448Z,995.64
2019-01-29T04:37:50.400Z,995.64
2019-01-29T04:38:50.419Z,995.62
2019-01-29T04:39:50.454Z,995.62
2019-01-29T04:40:50.358Z,995.66
2019-01-29T04:41:50.355Z,995.61
2019-01-29T04:42:50.386Z,995.62
2019-01-29T04:43:50.383Z,995.68
2019-01-29T04:44:50.328Z,995.68
2019-01-29T04:45:50.371Z,995.75
2019-01-29T04:46:50.474Z,995.69
2019-01-29T04:47:50.327Z,995.69
2019-01-29T04:48:50.302Z,995.72
2019-01-29T04:49:50.403Z,995.79
2019-01-29T04:50:50.312Z,995.70
2019-01-29T04:51:50.298Z,995.72
2019-01-29T04:52:50.295Z,995.80
2019-01-29T04:53:57.228Z,995.81
2019-01-29T04:54:51.221Z,995.79
2019-01-29T04:55:50.217Z,995.85
2019-01-29T04:56:50.183Z,995.93
2019-01-29T04:57:50.172Z,995.92
2019-01-29T04:58:50.237Z,995.97
2019-01-29T04:59:50.243Z,996.00
2019-01-29T05:00:50.154Z,996.04
2019-01-29T05:01:50.143Z,995.97
2019-01-29T05:02:50.129Z,996.00
2019-01-29T05:03:50.189Z,996.04
2019-01-29T05:04:50.119Z,996.04
2019-01-29T05:05:50.160Z,996.01
2019-01-29T05:06:50.088Z,996.10
2019-01-29T05:07:50.066Z,996.05
2019-01-29T05:08:50.050Z,996.10
2019-01-29T05:09:50.036Z,996.10
2019-01-29T05:10:50.031Z,996.08
2019-01-29T05:11:50.057Z,996.12
2019-01-29T05:12:50.026Z,996.14
2019-01-29T05:13:49.998Z,996.10
2019-01-29T05:14:49.993Z,996.17
2019-01-29T05:15:49.994Z,996.11
2019-01-29T05:16:50.018Z,996.12
2019-01-29T05:17:49.962Z,996.16
2019-01-29T05:18:49.943Z,996.16
2019-01-29T05:19:49.941Z,996.21
2019-01-29T05:20:49.923Z,996.17
2019-01-29T05:21:49.938Z,996.24
2019-01-29T05:22:50.003Z,996.20
2019-01-29T05:23:49.930Z,996.25
2019-01-29T05:24:49.903Z,996.25
2019-01-29T05:25:49.865Z,996.25
2019-01-29T05:26:49.866Z,996.30
2019-01-29T05:27:49.860Z,996.34
2019-01-29T05:28:49.904Z,996.31
2019-01-29T05:29:49.840Z,996.31
2019-01-29T05:30:49.925Z,996.32
2019-01-29T05:31:49.813Z,996.41
2019-01-29T05:32:49.793Z,996.35
2019-01-29T05:33:49.777Z,996.37
2019-01-29T05:34:49.855Z,996.35
2019-01-29T05:35:49.761Z,996.39
2019-01-29T05:36:49.754Z,996.37
2019-01-29T05:37:49.742Z,996.37
2019-01-29T05:38:49.739Z,996.43
2019-01-29T05:39:49.716Z,996.39
2019-01-29T05:40:49.849Z,996.41
2019-01-29T05:41:49.697Z,996.42
2019-01-29T05:42:49.690Z,996.45
2019-01-29T05:43:49.670Z,996.43
2019-01-29T05:44:49.667Z,996.50
2019-01-29T05:45:49.663Z,996.52
2019-01-29T05:46:49.884Z,996.50
2019-01-29T05:47:49.639Z,996.58
2019-01-29T05:48:49.624Z,996.57
2019-01-29T05:49:49.623Z,996.58
2019-01-29T05:50:49.609Z,996.61
2019-01-29T05:51:49.608Z,996.67
2019-01-29T05:52:49.651Z,996.68
2019-01-29T05:53:49.643Z,996.65
2019-01-29T05:54:49.564Z,996.66
2019-01-29T05:55:49.572Z,996.67
2019-01-29T05:56:49.613Z,996.71
2019-01-29T05:57:49.515Z,996.74
2019-01-29T05:58:49.531Z,996.78
2019-01-29T05:59:49.512Z,996.78
2019-01-29T06:00:49.593Z,996.80
2019-01-29T06:01:49.483Z,996.83
2019-01-29T06:02:49.478Z,996.83
2019-01-29T06:03:49.482Z,996.86
2019-01-29T06:04:49.446Z,996.79
2019-01-29T06:05:49.450Z,996.88
2019-01-29T06:06:49.505Z,996.93
2019-01-29T06:07:49.465Z,996.92
2019-01-29T06:08:49.441Z,996.95
2019-01-29T06:09:49.394Z,996.96
2019-01-29T06:10:49.398Z,997.00
2019-01-29T06:11:49.370Z,997.01
2019-01-29T06:12:49.364Z,997.00
2019-01-29T06:13:49.412Z,997.07
2019-01-29T06:14:49.350Z,997.02
2019-01-29T06:15:49.339Z,997.04
2019-01-29T06:16:49.322Z,997.08
2019-01-29T06:17:49.348Z,997.02
2019-01-29T06:18:49.292Z,997.07
2019-01-29T06:19:49.337Z,997.09
2019-01-29T06:20:49.371Z,997.17
2019-01-29T06:21:49.269Z,997.13
2019-01-29T06:22:49.259Z,997.16
2019-01-29T06:23:49.252Z,997.26
2019-01-29T06:24:49.261Z,997.20
2019-01-29T06:25:49.326Z,997.24
2019-01-29T06:26:49.259Z,997.30
2019-01-29T06:27:49.274Z,997.23
2019-01-29T06:28:49.188Z,997.31
2019-01-29T06:29:49.183Z,997.27
2019-01-29T06:30:49.188Z,997.32
2019-01-29T06:31:49.291Z,997.24
2019-01-29T06:32:49.150Z,997.34
2019-01-29T06:34:10.144Z,997.44
2019-01-29T06:34:49.792Z,997.39
2019-01-29T06:35:49.112Z,997.47
2019-01-29T06:36:50.912Z,997.48
2019-01-29T06:37:49.712Z,997.50
2019-01-29T06:38:49.079Z,997.49
2019-01-29T06:39:49.071Z,997.52
2019-01-29T06:40:49.079Z,997.54
2019-01-29T06:41:49.055Z,997.53
2019-01-29T06:42:51.039Z,997.62
2019-01-29T06:43:49.087Z,997.59
2019-01-29T06:44:49.041Z,997.54
2019-01-29T06:45:49.006Z,997.58
2019-01-29T06:46:48.990Z,997.60
2019-01-29T06:47:48.990Z,997.61
2019-01-29T06:48:48.969Z,997.66
2019-01-29T06:49:49.037Z,997.69
2019-01-29T06:50:48.955Z,997.66
2019-01-29T06:51:48.939Z,997.75
2019-01-29T06:52:48.932Z,997.85
2019-01-29T06:53:48.937Z,997.86
2019-01-29T06:54:48.899Z,997.85
2019-01-29T06:55:48.974Z,997.89
2019-01-29T06:56:48.878Z,997.84
2019-01-29T06:57:55.199Z,997.87
2019-01-29T06:58:49.887Z,997.95
2019-01-29T06:59:48.847Z,998.03
2019-01-29T07:00:48.871Z,998.03
2019-01-29T07:01:48.969Z,998.03
2019-01-29T07:02:48.836Z,998.04
2019-01-29T07:03:48.814Z,998.05
2019-01-29T07:04:48.803Z,998.07
2019-01-29T07:05:48.781Z,998.09
2019-01-29T07:06:48.772Z,998.07
2019-01-29T07:07:48.867Z,998.08
2019-01-29T07:08:48.761Z,998.08
2019-01-29T07:09:48.751Z,998.10
2019-01-29T07:10:48.792Z,998.14
2019-01-29T07:11:48.716Z,998.18
2019-01-29T07:12:48.700Z,998.13
2019-01-29T07:13:48.839Z,998.19
2019-01-29T07:14:48.690Z,998.15
2019-01-29T07:15:48.702Z,998.23
2019-01-29T07:16:48.787Z,998.21
2019-01-29T07:17:48.652Z,998.23
2019-01-29T07:18:48.659Z,998.26
2019-01-29T07:19:48.724Z,998.27
2019-01-29T07:20:48.628Z,998.28
2019-01-29T07:21:48.639Z,998.34
2019-01-29T07:22:48.609Z,998.31
2019-01-29T07:23:48.613Z,998.35
2019-01-29T07:24:48.820Z,998.35
2019-01-29T07:25:48.574Z,998.35
2019-01-29T07:26:48.570Z,998.39
2019-01-29T07:27:48.668Z,998.43
2019-01-29T07:28:48.529Z,998.42
2019-01-29T07:29:48.522Z,998.48
2019-01-29T07:30:48.597Z,998.43
2019-01-29T07:31:48.505Z,998.44
2019-01-29T07:32:48.504Z,998.48
2019-01-29T07:33:48.505Z,998.48
2019-01-29T07:34:48.478Z,998.45
2019-01-29T07:35:48.543Z,998.43
2019-01-29T07:36:48.469Z,998.44
2019-01-29T07:37:48.463Z,998.44
2019-01-29T07:38:48.424Z,998.47
2019-01-29T07:39:48.449Z,998.46
2019-01-29T07:40:48.496Z,998.40
2019-01-29T07:41:48.397Z,998.49
2019-01-29T07:42:48.393Z,998.49
2019-01-29T07:43:48.373Z,998.47
2019-01-29T07:44:48.373Z,998.50
2019-01-29T07:45:48.363Z,998.55
2019-01-29T07:46:48.417Z,998.55
2019-01-29T07:47:48.328Z,998.56
2019-01-29T07:48:48.786Z,998.53
2019-01-29T07:49:48.325Z,998.58
2019-01-29T07:50:48.335Z,998.55
2019-01-29T07:51:48.361Z,998.52
2019-01-29T07:52:48.281Z,998.50
2019-01-29T07:53:48.295Z,998.51
2019-01-29T07:54:51.240Z,998.54
2019-01-29T07:55:48.257Z,998.51
2019-01-29T07:56:49.232Z,998.55
2019-01-29T07:57:48.383Z,998.62
2019-01-29T07:58:49.317Z,998.55
2019-01-29T07:59:48.235Z,998.57
2019-01-29T08:00:48.232Z,998.54
2019-01-29T08:01:48.368Z,998.58
2019-01-29T08:02:48.235Z,998.61
2019-01-29T08:03:48.262Z,998.65
2019-01-29T08:04:48.228Z,998.69
2019-01-29T08:05:48.256Z,998.72
2019-01-29T08:06:48.267Z,998.71
2019-01-29T08:07:48.427Z,998.69
2019-01-29T08:08:48.219Z,998.73
2019-01-29T08:09:48.306Z,998.68
2019-01-29T08:10:48.376Z,998.71
2019-01-29T08:11:48.254Z,998.73
2019-01-29T08:12:48.250Z,998.73
2019-01-29T08:13:48.243Z,998.67
2019-01-29T08:14:48.230Z,998.75
2019-01-29T08:15:48.230Z,998.71
2019-01-29T08:16:48.372Z,998.72
2019-01-29T08:17:48.219Z,998.76
2019-01-29T08:18:48.217Z,998.79
2019-01-29T08:19:48.237Z,998.77
2019-01-29T08:20:48.197Z,998.77
2019-01-29T08:21:48.065Z,998.71
2019-01-29T08:22:48.328Z,998.72
2019-01-29T08:23:48.312Z,998.79
2019-01-29T08:24:52.001Z,998.81
2019-01-29T08:25:48.927Z,998.82
2019-01-29T08:26:47.903Z,998.84
2019-01-29T08:27:47.896Z,998.86
2019-01-29T08:28:47.887Z,998.91
2019-01-29T08:29:48.075Z,998.91
2019-01-29T08:30:47.959Z,998.88
2019-01-29T08:31:47.849Z,998.98
2019-01-29T08:32:47.867Z,998.96
2019-01-29T08:33:47.843Z,999.01
2019-01-29T08:35:08.890Z,999.00
2019-01-29T08:35:47.811Z,998.98
2019-01-29T08:36:47.791Z,999.02
2019-01-29T08:37:47.793Z,999.02
2019-01-29T08:38:47.797Z,999.05
2019-01-29T08:39:47.787Z,999.07
2019-01-29T08:40:47.841Z,999.05
2019-01-29T08:41:47.740Z,999.08
2019-01-29T08:42:47.745Z,999.09
2019-01-29T08:43:47.736Z,999.10
2019-01-29T08:44:47.707Z,999.13
2019-01-29T08:45:47.722Z,999.08
2019-01-29T08:46:47.791Z,999.06
2019-01-29T08:47:47.679Z,999.09
2019-01-29T08:48:47.665Z,999.11
2019-01-29T08:49:47.656Z,999.04
2019-01-29T08:50:47.656Z,999.09
2019-01-29T08:51:47.650Z,999.12
2019-01-29T08:52:47.727Z,999.10
2019-01-29T08:53:47.638Z,999.07
2019-01-29T08:54:47.627Z,999.07
2019-01-29T08:55:47.615Z,999.08
2019-01-29T08:56:47.639Z,999.12
2019-01-29T08:57:47.559Z,999.11
2019-01-29T08:58:47.794Z,999.10
2019-01-29T08:59:47.553Z,999.13
2019-01-29T09:00:47.565Z,999.19
2019-01-29T09:01:47.529Z,999.19
2019-01-29T09:02:47.984Z,999.20
2019-01-29T09:03:47.597Z,999.16
2019-01-29T09:04:47.492Z,999.21
2019-01-29T09:05:47.481Z,999.15
2019-01-29T09:06:47.470Z,999.29
2019-01-29T09:07:47.462Z,999.20
2019-01-29T09:08:47.480Z,999.20
2019-01-29T09:09:47.521Z,999.23
2019-01-29T09:10:47.431Z,999.32
2019-01-29T09:11:47.422Z,999.25
2019-01-29T09:12:47.417Z,999.29
2019-01-29T09:13:47.414Z,999.26
2019-01-29T09:14:47.411Z,999.30
2019-01-29T09:15:47.518Z,999.32
2019-01-29T09:16:47.368Z,999.37
2019-01-29T09:17:47.358Z,999.30
2019-01-29T09:18:47.348Z,999.34
2019-01-29T09:19:47.332Z,999.35
2019-01-29T09:20:47.321Z,999.37
2019-01-29T09:21:47.411Z,999.34
2019-01-29T09:22:47.384Z,999.36
2019-01-29T09:23:47.279Z,999.41
2019-01-29T09:24:47.320Z,999.40
2019-01-29T09:25:47.282Z,999.39
2019-01-29T09:26:47.247Z,999.43
2019-01-29T09:27:47.254Z,999.42
2019-01-29T09:28:47.324Z,999.43
2019-01-29T09:29:47.321Z,999.44
2019-01-29T09:30:47.210Z,999.44
2019-01-29T09:31:47.228Z,999.41
2019-01-29T09:32:47.200Z,999.43
2019-01-29T09:33:47.241Z,999.45
2019-01-29T09:34:47.160Z,999.40
2019-01-29T09:35:47.170Z,999.39
2019-01-29T09:36:47.159Z,999.37
2019-01-29T09:37:47.125Z,999.46
2019-01-29T09:38:47.114Z,999.45
2019-01-29T09:39:47.170Z,999.45
2019-01-29T09:40:47.188Z,999.39
2019-01-29T09:41:47.091Z,999.46
2019-01-29T09:42:47.084Z,999.46
2019-01-29T09:43:47.069Z,999.45
2019-01-29T09:44:47.068Z,999.45
2019-01-29T09:45:47.059Z,999.46
2019-01-29T09:46:47.109Z,999.45
2019-01-29T09:47:47.054Z,999.47
2019-01-29T09:48:47.023Z,999.49
2019-01-29T09:49:47.547Z,999.46
2019-01-29T09:50:47.294Z,999.49
2019-01-29T09:51:46.979Z,999.57
2019-01-29T09:52:47.044Z,999.49
2019-01-29T09:53:47.014Z,999.53
2019-01-29T09:54:46.958Z,999.54
2019-01-29T09:55:46.931Z,999.60
2019-01-29T09:56:46.928Z,999.50
2019-01-29T09:57:46.926Z,999.51
2019-01-29T09:58:46.913Z,999.60
2019-01-29T09:59:46.943Z,999.61
2019-01-29T10:00:46.889Z,999.61
2019-01-29T10:01:46.866Z,999.67
2019-01-29T10:02:46.897Z,999.62
2019-01-29T10:03:46.947Z,999.63
2019-01-29T10:04:46.851Z,999.58
2019-01-29T10:05:53.744Z,999.65
2019-01-29T10:06:46.809Z,999.68
2019-01-29T10:07:46.812Z,999.64
2019-01-29T10:08:46.800Z,999.63
2019-01-29T10:09:46.854Z,999.66
2019-01-29T10:10:46.771Z,999.62
2019-01-29T10:11:46.774Z,999.62
2019-01-29T10:12:46.820Z,999.63
2019-01-29T10:13:46.741Z,999.58
2019-01-29T10:14:46.734Z,999.63
2019-01-29T10:15:46.723Z,999.59
2019-01-29T10:16:46.702Z,999.60
2019-01-29T10:17:46.715Z,999.55
2019-01-29T10:18:46.773Z,999.59
2019-01-29T10:19:46.700Z,999.58
2019-01-29T10:20:46.671Z,999.64
2019-01-29T10:21:46.652Z,999.62
2019-01-29T10:22:46.645Z,999.56
2019-01-29T10:23:46.641Z,999.60
2019-01-29T10:24:46.700Z,999.54
2019-01-29T10:25:46.615Z,999.58
2019-01-29T10:26:46.609Z,999.58
2019-01-29T10:27:46.671Z,999.50
2019-01-29T10:28:46.577Z,999.48
2019-01-29T10:29:46.567Z,999.53
2019-01-29T10:30:46.585Z,999.59
2019-01-29T10:31:46.545Z,999.59
2019-01-29T10:32:46.538Z,999.54
2019-01-29T10:33:46.605Z,999.53
2019-01-29T10:34:46.536Z,999.58
2019-01-29T10:35:46.696Z,999.62
2019-01-29T10:36:46.513Z,999.63
2019-01-29T10:37:46.492Z,999.60
2019-01-29T10:38:46.476Z,999.61
2019-01-29T10:39:46.526Z,999.59
2019-01-29T10:40:46.449Z,999.60
2019-01-29T10:41:46.435Z,999.60
2019-01-29T10:42:46.428Z,999.65
2019-01-29T10:43:46.455Z,999.58
2019-01-29T10:44:46.411Z,999.59
2019-01-29T10:45:46.457Z,999.59
2019-01-29T10:46:46.391Z,999.55
2019-01-29T10:47:46.365Z,999.57
2019-01-29T10:48:46.375Z,999.54
2019-01-29T10:49:46.361Z,999.56
2019-01-29T10:50:46.338Z,999.51
2019-01-29T10:51:46.389Z,999.55
2019-01-29T10:52:46.319Z,999.53
2019-01-29T10:53:46.320Z,999.52
2019-01-29T10:54:46.324Z,999.51
2019-01-29T10:55:47.452Z,999.49
2019-01-29T10:56:46.268Z,999.50
2019-01-29T10:57:46.330Z,999.53
2019-01-29T10:58:46.254Z,999.55
2019-01-29T10:59:46.241Z,999.57
2019-01-29T11:00:46.353Z,999.54
2019-01-29T11:01:46.227Z,999.58
2019-01-29T11:02:46.319Z,999.58
2019-01-29T11:03:46.196Z,999.58
2019-01-29T11:04:46.189Z,999.61
2019-01-29T11:05:46.174Z,999.58
2019-01-29T11:06:46.181Z,999.59
2019-01-29T11:07:46.217Z,999.58
2019-01-29T11:08:46.177Z,999.58
2019-01-29T11:09:46.135Z,999.54
2019-01-29T11:10:46.123Z,999.57
2019-01-29T11:11:46.114Z,999.52
2019-01-29T11:12:46.089Z,999.57
2019-01-29T11:13:46.150Z,999.54
2019-01-29T11:14:46.079Z,999.54
2019-01-29T11:15:46.081Z,999.54
2019-01-29T11:16:46.073Z,999.53
2019-01-29T11:17:46.052Z,999.55
2019-01-29T11:18:46.038Z,999.62
2019-01-29T11:19:46.096Z,999.63
2019-01-29T11:20:46.010Z,999.58
2019-01-29T11:21:46.006Z,999.56
2019-01-29T11:22:45.987Z,999.56
2019-01-29T11:23:46.002Z,999.57
2019-01-29T11:24:45.967Z,999.54
2019-01-29T11:25:46.060Z,999.57
2019-01-29T11:26:45.961Z,999.56
2019-01-29T11:27:45.942Z,999.59
2019-01-29T11:28:45.932Z,999.58
2019-01-29T11:29:45.926Z,999.56
2019-01-29T11:30:45.897Z,999.55
2019-01-29T11:31:45.998Z,999.56
2019-01-29T11:32:45.874Z,999.55
2019-01-29T11:33:45.869Z,999.55
2019-01-29T11:34:45.877Z,999.56
2019-01-29T11:35:45.919Z,999.52
2019-01-29T11:36:45.931Z,999.58
2019-01-29T11:37:45.828Z,999.60
2019-01-29T11:38:45.812Z,999.54
2019-01-29T11:39:45.869Z,999.57
2019-01-29T11:40:45.811Z,999.61
2019-01-29T11:41:45.793Z,999.61
2019-01-29T11:42:45.911Z,999.61
2019-01-29T11:43:45.762Z,999.65
2019-01-29T11:44:45.774Z,999.58
2019-01-29T11:45:45.759Z,999.58
2019-01-29T11:46:45.893Z,999.58
2019-01-29T11:47:45.743Z,999.60
2019-01-29T11:48:45.705Z,999.60
2019-01-29T11:49:45.786Z,999.57
2019-01-29T11:50:45.694Z,999.58
2019-01-29T11:51:45.677Z,999.61
2019-01-29T11:52:45.737Z,999.57
2019-01-29T11:53:45.649Z,999.58
2019-01-29T11:54:45.642Z,999.55
2019-01-29T11:55:45.636Z,999.56
2019-01-29T11:56:45.651Z,999.58
2019-01-29T11:57:46.876Z,999.57
2019-01-29T11:58:45.703Z,999.64
2019-01-29T11:59:45.646Z,999.60
2019-01-29T12:00:45.591Z,999.61
2019-01-29T12:01:45.590Z,999.61
2019-01-29T12:02:45.557Z,999.67
2019-01-29T12:03:45.545Z,999.72
2019-01-29T12:04:45.616Z,999.65
2019-01-29T12:05:45.538Z,999.66
2019-01-29T12:06:45.521Z,999.72
2019-01-29T12:07:45.507Z,999.73
2019-01-29T12:08:45.522Z,999.70
2019-01-29T12:09:45.549Z,999.67
2019-01-29T12:10:45.486Z,999.69
2019-01-29T12:11:45.471Z,999.67
2019-01-29T12:12:45.452Z,999.70
2019-01-29T12:13:45.436Z,999.72
2019-01-29T12:14:45.435Z,999.70
2019-01-29T12:15:45.484Z,999.70
2019-01-29T12:16:45.514Z,999.72
2019-01-29T12:17:45.396Z,999.69
2019-01-29T12:18:45.397Z,999.71
2019-01-29T12:19:45.390Z,999.68
2019-01-29T12:20:45.366Z,999.67
2019-01-29T12:21:45.392Z,999.75
2019-01-29T12:22:45.337Z,999.72
2019-01-29T12:23:45.333Z,999.73
2019-01-29T12:24:45.325Z,999.67
2019-01-29T12:25:45.314Z,999.75
2019-01-29T12:26:46.276Z,999.74
2019-01-29T12:27:45.367Z,999.74
2019-01-29T12:28:45.293Z,999.74